Elburg, Netherlands
Current Conditions -  °F | °C
As of 9:55 AM on Wednesday 28 Jan 2015 (Local Time) from EHDL Reporting Station
Overcast Overcast  
Wind Chill: 32°   Ceiling: 800
Heat Index: 41°   Visibility: 6mi
Dew Point: 39°   Wind: 17mph
Humidity: 93%   Direction: 200°SSW
Pressure: 29.74"   Gusts: 30mph
Location:  52.45°N, 5.84°E
Report Text: EHDL 280855Z AUTO 20015G26KT 9999 SCT007 BKN008 OVC009 05/04 Q1007 GRN
Loading
Personal Weather Stations






























Interactive Weather Map New forecast layout! Learn more

10-Day Weather Forecast

Advertisements
Track Severe Weather on mobile